createdAt,value
2022-07-27T00:01:01.628Z,74.50
2022-07-27T00:03:28.854Z,73.90
2022-07-27T00:05:55.857Z,74.60
2022-07-27T00:08:24.211Z,74.20
2022-07-27T00:10:52.353Z,74.60
2022-07-27T00:13:19.820Z,74.20
2022-07-27T00:15:46.967Z,73.80
2022-07-27T00:18:14.253Z,73.20
2022-07-27T00:20:42.041Z,72.70
2022-07-27T00:23:10.408Z,72.80
2022-07-27T00:25:37.671Z,73.20
2022-07-27T00:28:05.146Z,72.80
2022-07-27T00:30:32.433Z,73.40
2022-07-27T00:33:01.428Z,73.70
2022-07-27T00:35:28.737Z,74.60
2022-07-27T00:37:55.786Z,74.60
2022-07-27T00:40:23.477Z,74.50
2022-07-27T00:42:50.635Z,74.30
2022-07-27T00:45:17.922Z,74.60
2022-07-27T00:47:45.029Z,74.60
2022-07-27T00:50:12.294Z,76.00
2022-07-27T00:52:43.867Z,77.10
2022-07-27T00:55:11.297Z,77.60
2022-07-27T00:57:58.297Z,77.30
2022-07-27T01:00:25.720Z,77.50
2022-07-27T01:02:53.128Z,77.90
2022-07-27T01:05:20.970Z,76.70
2022-07-27T01:07:52.437Z,76.70
2022-07-27T01:10:19.739Z,77.10
2022-07-27T01:12:46.995Z,77.00
2022-07-27T01:15:14.371Z,77.00
2022-07-27T01:17:41.407Z,77.10
2022-07-27T01:20:09.047Z,77.00
2022-07-27T01:22:36.381Z,77.40
2022-07-27T01:25:03.742Z,76.10
2022-07-27T01:27:30.826Z,76.00
2022-07-27T01:29:57.937Z,76.10
2022-07-27T01:32:25.223Z,76.70
2022-07-27T01:34:52.466Z,76.20
2022-07-27T01:37:19.484Z,76.90
2022-07-27T01:39:46.565Z,76.20
2022-07-27T01:42:13.667Z,75.70
2022-07-27T01:44:40.859Z,75.90
2022-07-27T01:47:14.070Z,75.60
2022-07-27T01:49:42.214Z,75.30
2022-07-27T01:52:09.302Z,75.40
2022-07-27T01:54:40.361Z,75.70
2022-07-27T01:57:07.362Z,76.50
2022-07-27T01:59:34.428Z,75.50
2022-07-27T02:02:01.566Z,75.50
2022-07-27T02:04:28.614Z,75.20
2022-07-27T02:06:55.708Z,74.60
2022-07-27T02:09:26.058Z,74.80
2022-07-27T02:12:11.725Z,74.50
2022-07-27T02:14:38.933Z,75.40
2022-07-27T02:17:05.966Z,75.30
2022-07-27T02:19:34.036Z,74.40
2022-07-27T02:22:01.120Z,73.40
2022-07-27T02:24:28.223Z,73.90
2022-07-27T02:26:55.382Z,74.20
2022-07-27T02:29:22.360Z,75.40
2022-07-27T02:31:49.450Z,76.00
2022-07-27T02:34:16.704Z,75.90
2022-07-27T02:36:43.829Z,75.40
2022-07-27T02:39:11.117Z,75.70
2022-07-27T02:41:38.258Z,75.10
2022-07-27T02:44:05.749Z,75.20
2022-07-27T02:46:33.141Z,75.20
2022-07-27T02:49:00.545Z,74.10
2022-07-27T02:51:27.729Z,74.70
2022-07-27T02:53:55.008Z,73.20
2022-07-27T02:56:27.074Z,73.60
2022-07-27T02:58:54.666Z,73.70
2022-07-27T03:01:27.383Z,72.80
2022-07-27T03:03:54.548Z,72.20
2022-07-27T03:06:23.074Z,72.50
2022-07-27T03:08:50.408Z,72.60
2022-07-27T03:11:17.658Z,72.90
2022-07-27T03:13:45.777Z,73.80
2022-07-27T03:16:13.023Z,73.00
2022-07-27T03:18:40.315Z,71.40
2022-07-27T03:21:07.787Z,71.70
2022-07-27T03:23:41.699Z,72.20
2022-07-27T03:26:08.775Z,71.10
2022-07-27T03:28:36.106Z,69.00
2022-07-27T03:31:04.130Z,70.50
2022-07-27T03:33:31.243Z,70.80
2022-07-27T03:35:58.335Z,70.00
2022-07-27T03:38:25.427Z,70.20
2022-07-27T03:40:52.524Z,70.90
2022-07-27T03:43:19.562Z,70.00
2022-07-27T03:45:47.092Z,70.10
2022-07-27T03:48:14.387Z,71.00
2022-07-27T03:50:41.440Z,72.00
2022-07-27T03:53:09.292Z,69.90
2022-07-27T03:55:38.856Z,69.30
2022-07-27T03:58:06.021Z,70.50
2022-07-27T04:00:33.000Z,70.00
2022-07-27T04:03:00.089Z,70.10
2022-07-27T04:05:29.421Z,67.50
2022-07-27T04:07:57.273Z,67.80
2022-07-27T04:10:26.064Z,68.10
2022-07-27T04:12:57.936Z,68.20
2022-07-27T04:15:26.114Z,67.50
2022-07-27T04:17:57.101Z,68.10
2022-07-27T04:20:25.873Z,68.70
2022-07-27T04:22:52.896Z,68.60
2022-07-27T04:25:20.154Z,69.20
2022-07-27T04:27:47.813Z,68.80
2022-07-27T04:30:15.046Z,69.20
2022-07-27T04:32:42.153Z,69.00
2022-07-27T04:35:09.914Z,71.00
2022-07-27T04:37:36.972Z,70.70
2022-07-27T04:40:04.741Z,70.60
2022-07-27T04:42:31.897Z,70.40
2022-07-27T04:45:00.105Z,70.10
2022-07-27T04:47:27.179Z,70.70
2022-07-27T04:49:54.248Z,70.50
2022-07-27T04:52:26.410Z,70.10
2022-07-27T04:54:54.924Z,69.50
2022-07-27T04:57:23.534Z,68.80
2022-07-27T04:59:50.647Z,65.30
2022-07-27T05:02:17.971Z,64.90
2022-07-27T05:04:45.113Z,62.00
2022-07-27T05:07:12.158Z,60.60
2022-07-27T05:09:39.264Z,59.20
2022-07-27T05:12:06.544Z,60.10
2022-07-27T05:14:33.603Z,61.90
2022-07-27T05:17:00.723Z,61.50
2022-07-27T05:19:40.709Z,60.80
2022-07-27T05:22:09.125Z,60.60
2022-07-27T05:24:36.416Z,59.50
2022-07-27T05:27:03.555Z,59.40
2022-07-27T05:29:30.615Z,60.70
2022-07-27T05:31:57.730Z,61.40
2022-07-27T05:34:26.019Z,61.10
2022-07-27T05:36:53.528Z,57.70
2022-07-27T05:39:21.453Z,58.30
2022-07-27T05:41:49.746Z,58.40
2022-07-27T05:44:17.196Z,58.20
2022-07-27T05:46:44.523Z,58.00
2022-07-27T05:49:12.650Z,60.50
2022-07-27T05:51:39.984Z,60.30
2022-07-27T05:54:07.090Z,57.40
2022-07-27T05:56:35.607Z,56.80
2022-07-27T05:59:07.676Z,59.80
2022-07-27T06:01:35.866Z,60.40
2022-07-27T06:04:03.167Z,59.20
2022-07-27T06:06:48.850Z,57.30
2022-07-27T06:09:16.646Z,56.30
2022-07-27T06:11:44.140Z,54.70
2022-07-27T06:14:11.172Z,55.00
2022-07-27T06:16:38.698Z,54.80
2022-07-27T06:19:06.254Z,53.80
2022-07-27T06:21:33.492Z,55.70
2022-07-27T06:24:00.499Z,57.90
2022-07-27T06:26:28.049Z,55.50
2022-07-27T06:28:58.964Z,54.10
2022-07-27T06:31:28.411Z,54.30
2022-07-27T06:34:11.629Z,55.40
2022-07-27T06:36:42.603Z,53.10
2022-07-27T06:39:16.270Z,51.90
2022-07-27T06:41:43.952Z,49.40
2022-07-27T06:44:11.178Z,48.90
2022-07-27T06:46:38.493Z,49.80
2022-07-27T06:49:05.586Z,49.40
2022-07-27T06:51:32.828Z,48.50
2022-07-27T06:54:02.827Z,48.80
2022-07-27T06:56:29.870Z,49.60
2022-07-27T06:58:57.248Z,50.30
2022-07-27T07:01:24.525Z,52.10
2022-07-27T07:03:51.838Z,52.20
2022-07-27T07:06:19.210Z,54.90
2022-07-27T07:08:46.815Z,55.10
2022-07-27T07:11:14.197Z,54.70
2022-07-27T07:13:44.933Z,55.40
2022-07-27T07:16:13.038Z,55.20
2022-07-27T07:18:40.179Z,56.40
2022-07-27T07:21:07.280Z,55.60
2022-07-27T07:23:34.515Z,54.60
2022-07-27T07:26:01.820Z,54.10
2022-07-27T07:28:29.455Z,53.90
2022-07-27T07:30:56.861Z,54.20
2022-07-27T07:33:23.962Z,51.20
2022-07-27T07:36:12.855Z,52.20
2022-07-27T07:38:43.097Z,51.60
2022-07-27T07:41:11.778Z,51.20
2022-07-27T07:43:40.135Z,52.00
2022-07-27T07:46:07.432Z,52.00
2022-07-27T07:48:34.965Z,51.40
2022-07-27T07:51:05.952Z,51.10
2022-07-27T07:53:35.519Z,51.60
2022-07-27T07:56:06.545Z,52.90
2022-07-27T07:58:34.380Z,52.20
2022-07-27T08:01:01.467Z,54.90
2022-07-27T08:03:29.122Z,56.80
2022-07-27T08:05:56.527Z,59.40
2022-07-27T08:08:24.853Z,60.10
2022-07-27T08:10:52.498Z,61.30
2022-07-27T08:13:22.282Z,61.00
2022-07-27T08:15:56.367Z,61.30
2022-07-27T08:18:23.528Z,61.50
2022-07-27T08:20:51.708Z,61.60
2022-07-27T08:23:20.596Z,59.40
2022-07-27T08:25:50.075Z,60.60
2022-07-27T08:28:26.270Z,60.60
2022-07-27T08:30:54.648Z,59.10
2022-07-27T08:33:21.820Z,55.80
2022-07-27T08:35:49.048Z,56.30
2022-07-27T08:38:16.252Z,54.60
2022-07-27T08:40:45.849Z,53.90
2022-07-27T08:43:25.526Z,55.10
2022-07-27T08:45:58.422Z,52.80
2022-07-27T08:48:31.432Z,50.30
2022-07-27T08:51:03.682Z,50.30
2022-07-27T08:53:52.402Z,49.70
2022-07-27T08:56:21.890Z,51.20
2022-07-27T08:58:50.056Z,51.30
2022-07-27T09:01:17.205Z,54.40
2022-07-27T09:03:44.453Z,57.90
2022-07-27T09:06:11.638Z,58.00
2022-07-27T09:08:42.112Z,58.80
2022-07-27T09:11:16.589Z,57.30
2022-07-27T09:13:55.508Z,57.10
2022-07-27T09:17:03.154Z,58.60
2022-07-27T09:19:17.486Z,56.60
2022-07-27T09:21:44.577Z,55.40
2022-07-27T09:24:36.658Z,57.20
2022-07-27T09:27:08.674Z,53.80
2022-07-27T09:29:37.134Z,53.70
2022-07-27T09:32:17.795Z,53.30
2022-07-27T09:34:46.550Z,53.30
2022-07-27T09:37:24.855Z,52.90
2022-07-27T09:40:09.497Z,54.20
2022-07-27T09:43:06.639Z,53.80
2022-07-27T09:45:36.515Z,58.40
2022-07-27T09:48:24.320Z,60.30
2022-07-27T09:51:03.646Z,62.30
2022-07-27T09:53:47.420Z,62.70
2022-07-27T09:56:25.712Z,61.00
2022-07-27T09:58:56.743Z,62.40
2022-07-27T10:01:26.264Z,63.80
2022-07-27T10:03:56.941Z,64.30
2022-07-27T10:06:29.245Z,66.60
2022-07-27T10:08:58.551Z,65.90
2022-07-27T10:11:32.693Z,65.20
2022-07-27T10:14:04.863Z,62.90
2022-07-27T10:16:34.506Z,62.70
2022-07-27T10:19:18.844Z,59.90
2022-07-27T10:21:50.017Z,59.70
2022-07-27T10:24:35.063Z,58.70
2022-07-27T10:27:28.023Z,55.80
2022-07-27T10:29:56.507Z,59.30
2022-07-27T10:32:34.655Z,67.20
2022-07-27T10:35:02.237Z,72.30
2022-07-27T10:37:31.911Z,74.00
2022-07-27T10:40:18.472Z,76.50
2022-07-27T10:42:53.641Z,78.30
2022-07-27T10:45:22.509Z,76.50
2022-07-27T10:47:52.768Z,73.40
2022-07-27T10:50:22.706Z,74.40
2022-07-27T10:53:00.390Z,70.80
2022-07-27T10:55:30.714Z,69.40
2022-07-27T10:57:58.122Z,67.20
2022-07-27T11:00:55.234Z,66.40
2022-07-27T11:03:25.682Z,64.50
2022-07-27T11:06:31.509Z,63.40
2022-07-27T11:09:27.222Z,61.10
2022-07-27T11:11:43.513Z,58.90
2022-07-27T11:14:11.962Z,57.30
2022-07-27T11:16:57.426Z,57.30
2022-07-27T11:19:27.436Z,58.10
2022-07-27T11:21:54.541Z,55.00
2022-07-27T11:24:23.854Z,56.00
2022-07-27T11:26:53.206Z,53.20
2022-07-27T11:29:23.083Z,54.10
2022-07-27T11:32:00.258Z,54.10
2022-07-27T11:34:37.227Z,50.20
2022-07-27T11:37:12.507Z,51.00
2022-07-27T11:40:00.316Z,51.20
2022-07-27T11:42:39.199Z,53.40
2022-07-27T11:45:07.596Z,55.60
2022-07-27T11:47:34.792Z,56.60
2022-07-27T11:50:12.114Z,60.40
2022-07-27T11:52:39.503Z,59.40
2022-07-27T11:55:08.288Z,58.00
2022-07-27T11:57:39.452Z,53.40
2022-07-27T12:00:07.215Z,55.90
2022-07-27T12:02:34.365Z,64.80
2022-07-27T12:05:03.167Z,72.50
2022-07-27T12:07:32.747Z,77.70
2022-07-27T12:10:05.903Z,75.80
2022-07-27T12:12:35.967Z,75.60
2022-07-27T12:18:06.247Z,75.20
2022-07-27T12:20:35.482Z,73.20
2022-07-27T12:23:08.090Z,71.40
2022-07-27T12:25:36.608Z,67.00
2022-07-27T12:28:13.617Z,68.20
2022-07-27T12:30:49.031Z,63.30
2022-07-27T12:33:37.337Z,60.50
2022-07-27T12:36:10.655Z,59.20
2022-07-27T12:38:44.545Z,59.50
2022-07-27T12:41:24.234Z,62.90
2022-07-27T12:44:15.505Z,64.20
2022-07-27T12:46:54.662Z,60.20
2022-07-27T12:49:26.063Z,58.80
2022-07-27T12:51:53.445Z,60.60
2022-07-27T12:54:21.597Z,60.50
2022-07-27T12:56:50.015Z,61.30
2022-07-27T12:59:21.652Z,57.90
2022-07-27T13:01:51.002Z,56.50
2022-07-27T13:04:18.207Z,60.00
2022-07-27T13:06:45.918Z,67.10
2022-07-27T13:09:13.492Z,71.70
2022-07-27T13:11:42.306Z,72.10
2022-07-27T13:14:12.435Z,73.30
2022-07-27T13:16:39.797Z,70.70
2022-07-27T13:19:06.883Z,69.60
2022-07-27T13:21:34.006Z,65.20
2022-07-27T13:24:03.049Z,63.90
2022-07-27T13:26:38.422Z,63.30
2022-07-27T13:29:06.055Z,63.10
2022-07-27T13:31:33.628Z,64.40
2022-07-27T13:34:01.004Z,68.00
2022-07-27T13:36:31.772Z,69.50
2022-07-27T13:38:58.855Z,69.00
2022-07-27T13:41:26.384Z,70.60
2022-07-27T13:43:53.551Z,71.50
2022-07-27T13:46:21.828Z,72.60
2022-07-27T13:48:49.142Z,73.50
2022-07-27T13:51:16.260Z,78.90
2022-07-27T13:53:43.520Z,82.30
2022-07-27T13:56:11.968Z,82.90
2022-07-27T13:58:41.537Z,83.50
2022-07-27T14:01:11.305Z,83.70
2022-07-27T14:03:40.497Z,82.80
2022-07-27T14:06:09.202Z,82.40
2022-07-27T14:08:36.399Z,83.60
2022-07-27T14:11:03.591Z,82.80
2022-07-27T14:13:32.915Z,82.00
2022-07-27T14:16:01.734Z,82.70
2022-07-27T14:18:32.621Z,82.00
2022-07-27T14:21:02.182Z,82.10
2022-07-27T14:23:30.134Z,83.70
2022-07-27T14:26:02.168Z,86.60
2022-07-27T14:28:30.552Z,88.00
2022-07-27T14:30:58.545Z,87.30
2022-07-27T14:33:36.738Z,86.40
2022-07-27T14:36:06.631Z,84.80
2022-07-27T14:38:34.277Z,85.50
2022-07-27T14:41:01.466Z,86.30
2022-07-27T14:43:30.291Z,86.50
2022-07-27T14:45:57.979Z,85.20
2022-07-27T14:48:42.202Z,86.50
2022-07-27T14:51:12.489Z,87.80
2022-07-27T14:53:39.580Z,87.70
2022-07-27T14:56:06.716Z,85.60
2022-07-27T14:58:33.815Z,85.80
2022-07-27T15:01:01.187Z,86.90
2022-07-27T15:03:28.394Z,84.90
2022-07-27T15:05:55.522Z,85.60
2022-07-27T15:08:24.856Z,87.10
2022-07-27T15:10:52.469Z,87.60
2022-07-27T15:13:19.638Z,88.50
2022-07-27T15:15:49.020Z,87.50
2022-07-27T15:18:18.914Z,83.90
2022-07-27T15:20:46.715Z,79.70
2022-07-27T15:23:14.689Z,77.00
2022-07-27T15:25:41.854Z,73.40
2022-07-27T15:28:08.969Z,75.40
2022-07-27T15:30:38.540Z,76.00
2022-07-27T15:33:06.620Z,76.00
2022-07-27T15:35:34.167Z,74.80
2022-07-27T15:38:02.143Z,76.50
2022-07-27T15:40:47.825Z,76.40
2022-07-27T15:43:18.832Z,77.60
2022-07-27T15:45:51.235Z,75.30
2022-07-27T15:48:21.753Z,76.50
2022-07-27T15:50:51.614Z,78.50
2022-07-27T15:53:20.944Z,78.60
2022-07-27T15:55:50.594Z,79.10
2022-07-27T15:58:19.634Z,78.20
2022-07-27T16:00:57.482Z,80.80
2022-07-27T16:03:26.930Z,79.90
2022-07-27T16:05:54.470Z,79.30
2022-07-27T16:08:21.792Z,83.40
2022-07-27T16:10:49.845Z,85.70
2022-07-27T16:13:17.183Z,84.40
2022-07-27T16:16:03.530Z,87.30
2022-07-27T16:18:35.334Z,85.00
2022-07-27T16:21:05.798Z,83.90
2022-07-27T16:23:33.030Z,81.10
2022-07-27T16:26:04.447Z,86.30
2022-07-27T16:28:35.492Z,85.20
2022-07-27T16:31:03.826Z,84.40
2022-07-27T16:33:34.093Z,84.30
2022-07-27T16:36:01.225Z,85.30
2022-07-27T16:38:28.541Z,83.30
2022-07-27T16:40:55.751Z,84.50
2022-07-27T16:43:35.994Z,84.30
2022-07-27T16:46:07.013Z,85.00
2022-07-27T16:48:41.674Z,84.60
2022-07-27T16:51:17.626Z,84.20
2022-07-27T16:53:48.521Z,82.30
2022-07-27T16:56:16.666Z,78.70
2022-07-27T16:58:47.946Z,81.10
2022-07-27T17:01:26.189Z,78.60
2022-07-27T17:03:54.929Z,79.30
2022-07-27T17:06:22.609Z,78.70
2022-07-27T17:08:49.862Z,78.80
2022-07-27T17:11:20.802Z,77.60
2022-07-27T17:13:49.965Z,77.60
2022-07-27T17:16:17.817Z,78.20
2022-07-27T17:18:45.032Z,77.60
2022-07-27T17:21:15.508Z,78.80
2022-07-27T17:23:43.997Z,77.00
2022-07-27T17:26:12.438Z,77.40
2022-07-27T17:28:40.594Z,77.00
2022-07-27T17:31:13.193Z,75.90
2022-07-27T17:33:41.194Z,76.10
2022-07-27T17:36:14.474Z,75.90
2022-07-27T17:38:43.651Z,76.90
2022-07-27T17:41:14.630Z,76.60
2022-07-27T17:43:42.376Z,77.90
2022-07-27T17:46:11.137Z,79.60
2022-07-27T17:48:39.715Z,78.50
2022-07-27T17:51:08.735Z,79.80
2022-07-27T17:53:36.303Z,81.40
2022-07-27T17:56:04.826Z,79.60
2022-07-27T17:58:32.433Z,81.00
2022-07-27T18:00:59.561Z,82.00
2022-07-27T18:03:26.914Z,80.20
2022-07-27T18:05:54.209Z,78.50
2022-07-27T18:08:21.697Z,77.60
2022-07-27T18:10:50.080Z,77.70
2022-07-27T18:13:17.444Z,77.50
2022-07-27T18:15:47.676Z,75.90
2022-07-27T18:18:33.914Z,76.40
2022-07-27T18:21:01.742Z,76.50
2022-07-27T18:23:30.855Z,75.70
2022-07-27T18:26:01.133Z,76.30
2022-07-27T18:28:28.202Z,75.00
2022-07-27T18:30:56.513Z,75.30
2022-07-27T18:33:25.014Z,74.80
2022-07-27T18:35:54.050Z,75.90
2022-07-27T18:38:24.328Z,75.70
2022-07-27T18:40:51.326Z,76.60
2022-07-27T18:43:18.728Z,76.80
2022-07-27T18:45:45.882Z,78.20
2022-07-27T18:48:12.874Z,80.50
2022-07-27T18:50:40.612Z,81.70
2022-07-27T18:53:08.792Z,81.20
2022-07-27T18:55:36.813Z,80.60
2022-07-27T18:58:04.430Z,80.10
2022-07-27T19:00:33.597Z,81.10
2022-07-27T19:03:01.611Z,81.50
2022-07-27T19:05:40.480Z,82.20
2022-07-27T19:08:13.886Z,80.40
2022-07-27T19:10:45.096Z,80.30
2022-07-27T19:13:12.985Z,80.00
2022-07-27T19:15:41.467Z,79.60
2022-07-27T19:18:08.995Z,80.30
2022-07-27T19:20:37.762Z,80.60
2022-07-27T19:23:06.502Z,81.70
2022-07-27T19:25:34.267Z,82.10
2022-07-27T19:28:02.742Z,80.50
2022-07-27T19:30:30.228Z,83.00
2022-07-27T19:32:57.517Z,84.60
2022-07-27T19:35:24.825Z,85.90
2022-07-27T19:37:51.952Z,83.90
2022-07-27T19:43:07.416Z,84.40
2022-07-27T19:45:36.885Z,83.90
2022-07-27T19:48:05.955Z,82.40
2022-07-27T19:50:33.667Z,82.50
2022-07-27T19:53:01.501Z,82.80
2022-07-27T19:55:28.750Z,81.30
2022-07-27T19:57:56.062Z,82.20
2022-07-27T20:00:24.657Z,80.70
2022-07-27T20:02:52.099Z,80.70
2022-07-27T20:05:19.805Z,79.30
2022-07-27T20:07:46.977Z,79.70
2022-07-27T20:10:14.276Z,79.00
2022-07-27T20:12:41.404Z,79.40
2022-07-27T20:15:09.154Z,79.70
2022-07-27T20:17:38.630Z,80.20
2022-07-27T20:20:09.826Z,78.80
2022-07-27T20:22:39.444Z,79.00
2022-07-27T20:25:15.018Z,79.20
2022-07-27T20:27:43.087Z,79.50
2022-07-27T20:30:11.798Z,79.50
2022-07-27T20:32:38.872Z,79.00
2022-07-27T20:35:06.653Z,79.70
2022-07-27T20:37:35.154Z,79.90
2022-07-27T20:40:05.267Z,80.30
2022-07-27T20:42:32.837Z,81.50
2022-07-27T20:45:00.862Z,80.00
2022-07-27T20:47:34.078Z,80.00
2022-07-27T20:50:04.835Z,80.30
2022-07-27T20:52:33.123Z,80.30
2022-07-27T20:55:00.542Z,79.70
2022-07-27T20:57:27.611Z,79.70
2022-07-27T20:59:55.680Z,80.50
2022-07-27T21:02:23.063Z,80.90
2022-07-27T21:04:50.479Z,81.20
2022-07-27T21:07:20.019Z,80.20
2022-07-27T21:09:48.255Z,82.50
2022-07-27T21:12:16.076Z,83.30
2022-07-27T21:14:43.936Z,83.40
2022-07-27T21:17:11.170Z,85.40
2022-07-27T21:19:38.710Z,86.10
2022-07-27T21:22:05.968Z,86.40
2022-07-27T21:24:33.097Z,86.60
2022-07-27T21:27:04.385Z,86.70
2022-07-27T21:29:32.523Z,87.50
2022-07-27T21:31:59.767Z,88.20
2022-07-27T21:34:27.819Z,88.60
2022-07-27T21:37:02.157Z,89.10
2022-07-27T21:39:32.315Z,89.20
2022-07-27T21:42:02.149Z,89.10
2022-07-27T21:44:30.113Z,89.20
2022-07-27T21:46:58.696Z,89.40
2022-07-27T21:49:34.487Z,89.20
2022-07-27T21:52:02.169Z,89.20
2022-07-27T21:54:36.059Z,89.60
2022-07-27T21:57:03.642Z,89.70
2022-07-27T21:59:30.784Z,89.20
2022-07-27T22:01:58.999Z,89.10
2022-07-27T22:04:26.247Z,89.20
2022-07-27T22:06:54.207Z,89.00
2022-07-27T22:09:25.987Z,89.90
2022-07-27T22:11:53.045Z,90.20
2022-07-27T22:14:23.423Z,89.80
2022-07-27T22:16:50.559Z,89.90
2022-07-27T22:19:17.842Z,88.90
2022-07-27T22:21:47.179Z,89.30
2022-07-27T22:24:14.380Z,88.00
2022-07-27T22:26:44.894Z,88.10
2022-07-27T22:29:12.359Z,88.60
2022-07-27T22:31:39.446Z,86.80
2022-07-27T22:34:06.452Z,86.80
2022-07-27T22:36:33.455Z,87.00
2022-07-27T22:39:00.737Z,86.90
2022-07-27T22:41:27.976Z,87.10
2022-07-27T22:43:54.986Z,87.00
2022-07-27T22:46:25.596Z,88.60
2022-07-27T22:48:53.196Z,90.50
2022-07-27T22:51:20.249Z,91.10
2022-07-27T22:53:47.253Z,91.90
2022-07-27T22:56:14.276Z,90.90
2022-07-27T22:58:41.841Z,90.70
2022-07-27T23:01:41.488Z,91.10
2022-07-27T23:03:55.829Z,92.10
2022-07-27T23:06:23.107Z,93.10
2022-07-27T23:08:50.090Z,93.00
2022-07-27T23:11:17.707Z,93.40
2022-07-27T23:13:44.725Z,93.60
2022-07-27T23:16:12.257Z,93.80
2022-07-27T23:18:39.351Z,93.90
2022-07-27T23:21:06.438Z,94.00
2022-07-27T23:23:35.261Z,94.30
2022-07-27T23:26:07.472Z,94.50
2022-07-27T23:28:36.504Z,94.30
2022-07-27T23:31:03.591Z,94.90
2022-07-27T23:33:30.696Z,94.40
2022-07-27T23:35:57.771Z,94.30
2022-07-27T23:38:24.829Z,94.40
2022-07-27T23:40:53.471Z,94.10
2022-07-27T23:43:20.534Z,94.20
2022-07-27T23:45:47.637Z,94.40
2022-07-27T23:48:15.462Z,94.40
2022-07-27T23:50:42.549Z,94.50
2022-07-27T23:53:09.978Z,94.70
2022-07-27T23:55:37.373Z,95.10
2022-07-27T23:58:04.513Z,95.50
